CFG4339 EDDF-UDYZ
Flight info
| Callsign | CFG4339 |
|---|---|
| Flight time | 4h 17m |
| Altitude | 31000 |
| Route | SULUS7S/18 SULUS Z650 VEMUT/N0438F370 DCT PEPIK DCT UVERA/N0442F390 DCT BUDOP DCT UDROS UM859 KARDE UL851 TBN UP146 YAVUZ UN161 BIRZU/N0415F270 N161 INDUR |
| Aircraft | A319/M-SDE2FGHIJ1RWXY/HB1 |
Departure
| Time | 2026-05-04 08:54 |
|---|---|
| Airport | Frankfurt Main Airport (EDDF) |
Arrival
| Time | 2026-05-04 13:12 |
|---|---|
| Airport | Zvartnots International Airport (UDYZ) |
| Time | Latitude | Longitude | Altitude | Speed | Heading |
|---|---|---|---|---|---|
| 2026-05-04 08:24 | 50.04871 | 8.58975 | 365 ft | 0 kts | 340° |
| 2026-05-04 08:47 | 50.04858 | 8.58983 | 369 ft | 3 kts | 340° |
| 2026-05-04 08:47 | 50.04837 | 8.58995 | 368 ft | 3 kts | 340° |
| 2026-05-04 08:47 | 50.04815 | 8.59007 | 369 ft | 3 kts | 340° |
| 2026-05-04 08:47 | 50.04796 | 8.59018 | 371 ft | 1 kts | 340° |
| 2026-05-04 08:50 | 50.04802 | 8.59009 | 368 ft | 2 kts | 309° |
| 2026-05-04 08:51 | 50.04795 | 8.58986 | 368 ft | 2 kts | 229° |
| 2026-05-04 08:51 | 50.04783 | 8.58965 | 371 ft | 4 kts | 226° |
| 2026-05-04 08:51 | 50.04761 | 8.58911 | 372 ft | 9 kts | 246° |
| 2026-05-04 08:51 | 50.04736 | 8.58814 | 368 ft | 10 kts | 243° |
| 2026-05-04 08:52 | 50.04681 | 8.58765 | 370 ft | 9 kts | 186° |
| 2026-05-04 08:52 | 50.04621 | 8.58751 | 370 ft | 9 kts | 192° |
| 2026-05-04 08:52 | 50.04570 | 8.58697 | 371 ft | 9 kts | 218° |
| 2026-05-04 08:52 | 50.04518 | 8.58670 | 371 ft | 7 kts | 190° |
| 2026-05-04 08:53 | 50.04492 | 8.58609 | 371 ft | 8 kts | 249° |
| 2026-05-04 08:54 | 50.01581 | 8.49872 | 2592 ft | 214 kts | 200° |
| 2026-05-04 08:55 | 50.00092 | 8.49420 | 3402 ft | 217 kts | 193° |
| 2026-05-04 08:55 | 49.98608 | 8.49303 | 4415 ft | 216 kts | 167° |
| 2026-05-04 08:55 | 49.97337 | 8.50624 | 5163 ft | 231 kts | 128° |
| 2026-05-04 08:55 | 49.96503 | 8.52776 | 6000 ft | 234 kts | 121° |
| 2026-05-04 08:57 | 49.91367 | 8.72158 | 10789 ft | 317 kts | 142° |
| 2026-05-04 09:01 | 49.74470 | 9.19958 | 20065 ft | 398 kts | 107° |
| 2026-05-04 09:01 | 49.73803 | 9.24147 | 20645 ft | 402 kts | 107° |
| 2026-05-04 09:01 | 49.73128 | 9.28351 | 21209 ft | 406 kts | 107° |
| 2026-05-04 09:01 | 49.72436 | 9.32609 | 21766 ft | 410 kts | 107° |
| 2026-05-04 09:02 | 49.71736 | 9.36890 | 22324 ft | 414 kts | 107° |
| 2026-05-04 09:02 | 49.71025 | 9.41223 | 22863 ft | 417 kts | 107° |
| 2026-05-04 09:02 | 49.70309 | 9.45581 | 23395 ft | 421 kts | 107° |
| 2026-05-04 09:02 | 49.69585 | 9.49982 | 23856 ft | 425 kts | 107° |
| 2026-05-04 09:03 | 49.68851 | 9.54424 | 24239 ft | 429 kts | 107° |
| 2026-05-04 09:03 | 49.68108 | 9.58921 | 24661 ft | 432 kts | 107° |
| 2026-05-04 09:03 | 49.67548 | 9.63495 | 25081 ft | 438 kts | 98° |
| 2026-05-04 09:03 | 49.67483 | 9.68222 | 25503 ft | 444 kts | 88° |
| 2026-05-04 09:04 | 49.67931 | 9.72961 | 25920 ft | 449 kts | 78° |
| 2026-05-04 09:04 | 49.68748 | 9.77628 | 26322 ft | 452 kts | 76° |
| 2026-05-04 09:04 | 49.69585 | 9.82334 | 26737 ft | 455 kts | 76° |
| 2026-05-04 09:04 | 49.70417 | 9.87049 | 27142 ft | 457 kts | 76° |
| 2026-05-04 09:05 | 49.71338 | 9.91775 | 27513 ft | 460 kts | 70° |
| 2026-05-04 09:05 | 49.72672 | 9.96295 | 27906 ft | 465 kts | 61° |
| 2026-05-04 09:05 | 49.74442 | 10.00514 | 28330 ft | 468 kts | 54° |
| 2026-05-04 09:05 | 49.76351 | 10.04606 | 28774 ft | 471 kts | 54° |
| 2026-05-04 09:06 | 49.78265 | 10.08732 | 29116 ft | 474 kts | 54° |
| 2026-05-04 09:07 | 49.91897 | 10.38433 | 31032 ft | 477 kts | 54° |
| 2026-05-04 09:08 | 49.93799 | 10.42597 | 31033 ft | 471 kts | 54° |
| 2026-05-04 09:08 | 49.97568 | 10.50870 | 31030 ft | 468 kts | 54° |
| 2026-05-04 09:09 | 50.01316 | 10.59131 | 31031 ft | 467 kts | 54° |
| 2026-05-04 09:09 | 50.04481 | 10.67877 | 31037 ft | 463 kts | 72° |
| 2026-05-04 09:10 | 50.05558 | 10.77689 | 31054 ft | 460 kts | 93° |
| 2026-05-04 09:10 | 50.05269 | 10.82612 | 31047 ft | 456 kts | 104° |
| 2026-05-04 09:10 | 50.04460 | 10.87359 | 31044 ft | 453 kts | 112° |
| 2026-05-04 09:11 | 50.02497 | 10.96665 | 31041 ft | 453 kts | 112° |
| 2026-05-04 09:11 | 50.00524 | 11.05947 | 31030 ft | 452 kts | 111° |
| 2026-05-04 09:12 | 49.98549 | 11.15220 | 31028 ft | 452 kts | 112° |
| 2026-05-04 09:14 | 49.90732 | 11.53114 | 31042 ft | 478 kts | 108° |
| 2026-05-04 09:14 | 49.89859 | 11.58098 | 31389 ft | 478 kts | 108° |
| 2026-05-04 09:14 | 49.88991 | 11.63072 | 31836 ft | 477 kts | 108° |
| 2026-05-04 09:14 | 49.88185 | 11.68049 | 32269 ft | 477 kts | 103° |
| 2026-05-04 09:15 | 49.87715 | 11.73146 | 32703 ft | 477 kts | 99° |
| 2026-05-04 09:15 | 49.87274 | 11.78239 | 33143 ft | 476 kts | 100° |
| 2026-05-04 09:15 | 49.86819 | 11.83319 | 33591 ft | 475 kts | 100° |
| 2026-05-04 09:15 | 49.86357 | 11.88384 | 34050 ft | 474 kts | 100° |
| 2026-05-04 09:17 | 49.82726 | 12.28324 | 36927 ft | 466 kts | 100° |
| 2026-05-04 09:18 | 49.81808 | 12.38233 | 37036 ft | 464 kts | 100° |
| 2026-05-04 09:18 | 49.80693 | 12.48042 | 37038 ft | 461 kts | 109° |
| 2026-05-04 09:19 | 49.78809 | 12.57510 | 37034 ft | 460 kts | 110° |
| 2026-05-04 09:19 | 49.76920 | 12.66980 | 37036 ft | 460 kts | 110° |
| 2026-05-04 09:20 | 49.75014 | 12.76430 | 37019 ft | 460 kts | 110° |
| 2026-05-04 09:20 | 49.73105 | 12.85887 | 37018 ft | 461 kts | 110° |
| 2026-05-04 09:21 | 49.71181 | 12.95341 | 37014 ft | 461 kts | 110° |
| 2026-05-04 09:21 | 49.69254 | 13.04799 | 37015 ft | 461 kts | 110° |
| 2026-05-04 09:22 | 49.67328 | 13.14243 | 37050 ft | 462 kts | 110° |
| 2026-05-04 09:22 | 49.65382 | 13.23691 | 37053 ft | 461 kts | 110° |
| 2026-05-04 09:23 | 49.63436 | 13.33113 | 37060 ft | 461 kts | 110° |
| 2026-05-04 09:23 | 49.61479 | 13.42522 | 37066 ft | 461 kts | 110° |
| 2026-05-04 09:25 | 49.53575 | 13.80094 | 37014 ft | 462 kts | 110° |
| 2026-05-04 09:26 | 49.51576 | 13.89502 | 37012 ft | 463 kts | 110° |
| 2026-05-04 09:26 | 49.49565 | 13.98921 | 37010 ft | 463 kts | 110° |
| 2026-05-04 09:27 | 49.47550 | 14.08331 | 37009 ft | 463 kts | 110° |
| 2026-05-04 09:27 | 49.45520 | 14.17741 | 37014 ft | 463 kts | 110° |
| 2026-05-04 09:28 | 49.43474 | 14.27149 | 37016 ft | 464 kts | 111° |
| 2026-05-04 09:28 | 49.41419 | 14.36551 | 37018 ft | 464 kts | 111° |
| 2026-05-04 09:29 | 49.39370 | 14.45933 | 37013 ft | 464 kts | 110° |
| 2026-05-04 09:29 | 49.37665 | 14.53743 | 37021 ft | 464 kts | 110° |
| 2026-05-04 09:30 | 49.35602 | 14.63116 | 37017 ft | 464 kts | 111° |
| 2026-05-04 09:30 | 49.33516 | 14.72486 | 37022 ft | 464 kts | 111° |
| 2026-05-04 09:31 | 49.31434 | 14.81840 | 37024 ft | 463 kts | 111° |
| 2026-05-04 09:31 | 49.29372 | 14.91176 | 37017 ft | 462 kts | 111° |
| 2026-05-04 09:32 | 49.27269 | 15.00483 | 37015 ft | 462 kts | 111° |
| 2026-05-04 09:34 | 49.18844 | 15.37611 | 37018 ft | 463 kts | 111° |
| 2026-05-04 09:34 | 49.16710 | 15.46896 | 37025 ft | 463 kts | 111° |
| 2026-05-04 09:35 | 49.14563 | 15.56198 | 37035 ft | 464 kts | 111° |
| 2026-05-04 09:35 | 49.12419 | 15.65471 | 37025 ft | 464 kts | 111° |
| 2026-05-04 09:37 | 49.03755 | 16.02504 | 37052 ft | 463 kts | 111° |
| 2026-05-04 09:38 | 49.01575 | 16.11739 | 37057 ft | 463 kts | 110° |
| 2026-05-04 09:38 | 48.99388 | 16.20955 | 37062 ft | 462 kts | 111° |
| 2026-05-04 09:39 | 48.97192 | 16.30147 | 37067 ft | 462 kts | 111° |
| 2026-05-04 09:39 | 48.94995 | 16.39326 | 37058 ft | 462 kts | 111° |
| 2026-05-04 09:40 | 48.92788 | 16.48507 | 37059 ft | 461 kts | 111° |
| 2026-05-04 09:40 | 48.90575 | 16.57659 | 37062 ft | 461 kts | 111° |
| 2026-05-04 09:42 | 48.81690 | 16.94096 | 37056 ft | 461 kts | 111° |
| 2026-05-04 09:43 | 48.79438 | 17.03221 | 37064 ft | 462 kts | 111° |
| 2026-05-04 09:43 | 48.76532 | 17.11856 | 37072 ft | 460 kts | 125° |
| 2026-05-04 09:44 | 48.72952 | 17.19885 | 37084 ft | 460 kts | 125° |
| 2026-05-04 09:46 | 48.58563 | 17.51960 | 37096 ft | 460 kts | 126° |
| 2026-05-04 09:46 | 48.54952 | 17.59947 | 37088 ft | 461 kts | 125° |
| 2026-05-04 09:47 | 48.51364 | 17.67869 | 37105 ft | 460 kts | 125° |
| 2026-05-04 09:49 | 48.36880 | 17.99616 | 37096 ft | 459 kts | 124° |
| 2026-05-04 09:51 | 48.24144 | 18.27213 | 37100 ft | 459 kts | 125° |
| 2026-05-04 09:51 | 48.20499 | 18.35056 | 37106 ft | 458 kts | 124° |
| 2026-05-04 09:52 | 48.17701 | 18.41056 | 37121 ft | 459 kts | 124° |
| 2026-05-04 09:52 | 48.14051 | 18.48881 | 37121 ft | 458 kts | 124° |
| 2026-05-04 09:53 | 48.10393 | 18.56701 | 37114 ft | 458 kts | 124° |
| 2026-05-04 09:53 | 48.06746 | 18.64447 | 37131 ft | 458 kts | 124° |
| 2026-05-04 09:54 | 48.03073 | 18.72241 | 37132 ft | 458 kts | 124° |
| 2026-05-04 09:54 | 47.99402 | 18.80021 | 37138 ft | 458 kts | 124° |
| 2026-05-04 09:55 | 47.95731 | 18.87778 | 37134 ft | 457 kts | 124° |
| 2026-05-04 09:55 | 47.92055 | 18.95523 | 37120 ft | 458 kts | 124° |
| 2026-05-04 09:56 | 47.88374 | 19.03254 | 37135 ft | 457 kts | 124° |
| 2026-05-04 09:56 | 47.84680 | 19.10976 | 37131 ft | 458 kts | 124° |
| 2026-05-04 09:57 | 47.80979 | 19.18703 | 37147 ft | 458 kts | 124° |
| 2026-05-04 09:57 | 47.77276 | 19.26410 | 37148 ft | 458 kts | 124° |
| 2026-05-04 09:58 | 47.73571 | 19.34100 | 37154 ft | 457 kts | 124° |
| 2026-05-04 09:58 | 47.69891 | 19.41737 | 37163 ft | 457 kts | 124° |
| 2026-05-04 10:00 | 47.55016 | 19.72299 | 37165 ft | 457 kts | 124° |
| 2026-05-04 10:04 | 47.28821 | 20.25339 | 37172 ft | 457 kts | 124° |
| 2026-05-04 10:04 | 47.25060 | 20.32874 | 37187 ft | 456 kts | 124° |
| 2026-05-04 10:05 | 47.21292 | 20.40391 | 37178 ft | 456 kts | 124° |
| 2026-05-04 10:05 | 47.17561 | 20.47940 | 37179 ft | 456 kts | 123° |
| 2026-05-04 10:06 | 47.13962 | 20.55615 | 37179 ft | 456 kts | 122° |
| 2026-05-04 10:06 | 47.10386 | 20.63298 | 37184 ft | 456 kts | 122° |
| 2026-05-04 10:08 | 46.97651 | 20.89985 | 37181 ft | 456 kts | 123° |
| 2026-05-04 10:08 | 46.94032 | 20.97544 | 37191 ft | 456 kts | 122° |
| 2026-05-04 10:09 | 46.90378 | 21.05140 | 37189 ft | 456 kts | 123° |
| 2026-05-04 10:09 | 46.86720 | 21.12719 | 37186 ft | 456 kts | 123° |
| 2026-05-04 10:10 | 46.83051 | 21.20285 | 37185 ft | 456 kts | 123° |
| 2026-05-04 10:10 | 46.79392 | 21.27829 | 37190 ft | 455 kts | 123° |
| 2026-05-04 10:11 | 46.75726 | 21.35374 | 37182 ft | 456 kts | 123° |
| 2026-05-04 10:11 | 46.72049 | 21.42912 | 37182 ft | 456 kts | 123° |
| 2026-05-04 10:12 | 46.68475 | 21.50466 | 37179 ft | 454 kts | 117° |
| 2026-05-04 10:12 | 46.65485 | 21.58557 | 37192 ft | 453 kts | 115° |
| 2026-05-04 10:13 | 46.62502 | 21.66625 | 37189 ft | 452 kts | 115° |
| 2026-05-04 10:13 | 46.59516 | 21.74689 | 37180 ft | 452 kts | 115° |
| 2026-05-04 10:14 | 46.56528 | 21.82736 | 37183 ft | 453 kts | 115° |
| 2026-05-04 10:16 | 46.44547 | 22.14821 | 37180 ft | 451 kts | 115° |
| 2026-05-04 10:16 | 46.41539 | 22.22804 | 37176 ft | 451 kts | 115° |
| 2026-05-04 10:17 | 46.38531 | 22.30772 | 37176 ft | 450 kts | 115° |
| 2026-05-04 10:19 | 46.26499 | 22.62409 | 37169 ft | 449 kts | 116° |
| 2026-05-04 10:19 | 46.23477 | 22.70304 | 37164 ft | 449 kts | 116° |
| 2026-05-04 10:20 | 46.20448 | 22.78179 | 37158 ft | 449 kts | 116° |
| 2026-05-04 10:20 | 46.17924 | 22.84716 | 37156 ft | 448 kts | 116° |
| 2026-05-04 10:21 | 46.14888 | 22.92567 | 37167 ft | 447 kts | 116° |
| 2026-05-04 10:21 | 46.11366 | 23.01659 | 37157 ft | 446 kts | 116° |
| 2026-05-04 10:22 | 46.07319 | 23.12088 | 37153 ft | 445 kts | 116° |
| 2026-05-04 10:23 | 46.04286 | 23.19856 | 37150 ft | 445 kts | 116° |
| 2026-05-04 10:25 | 45.92160 | 23.50714 | 37149 ft | 443 kts | 116° |
| 2026-05-04 10:25 | 45.89119 | 23.58405 | 37171 ft | 443 kts | 116° |
| 2026-05-04 10:26 | 45.86073 | 23.66085 | 37167 ft | 442 kts | 116° |
| 2026-05-04 10:26 | 45.83029 | 23.73738 | 37173 ft | 442 kts | 116° |
| 2026-05-04 10:27 | 45.79979 | 23.81373 | 37168 ft | 442 kts | 116° |
| 2026-05-04 10:27 | 45.76923 | 23.89003 | 37178 ft | 441 kts | 116° |
| 2026-05-04 10:28 | 45.73862 | 23.96631 | 37176 ft | 441 kts | 117° |
| 2026-05-04 10:28 | 45.70803 | 24.04238 | 37178 ft | 441 kts | 117° |
| 2026-05-04 10:29 | 45.67742 | 24.11838 | 37144 ft | 441 kts | 117° |
| 2026-05-04 10:29 | 45.64669 | 24.19428 | 37168 ft | 441 kts | 117° |
| 2026-05-04 10:30 | 45.61595 | 24.26994 | 37155 ft | 440 kts | 117° |
| 2026-05-04 10:30 | 45.58527 | 24.34548 | 37147 ft | 439 kts | 117° |
| 2026-05-04 10:31 | 45.55463 | 24.42071 | 37135 ft | 438 kts | 117° |
| 2026-05-04 10:32 | 45.44674 | 24.68329 | 37112 ft | 438 kts | 117° |
| 2026-05-04 10:33 | 45.41583 | 24.75816 | 37110 ft | 438 kts | 117° |
| 2026-05-04 10:33 | 45.38489 | 24.83290 | 37114 ft | 439 kts | 118° |
| 2026-05-04 10:34 | 45.35392 | 24.90762 | 37115 ft | 439 kts | 118° |
| 2026-05-04 10:34 | 45.32286 | 24.98231 | 37102 ft | 439 kts | 118° |
| 2026-05-04 10:35 | 45.29177 | 25.05684 | 37098 ft | 439 kts | 118° |
| 2026-05-04 10:35 | 45.26053 | 25.13130 | 37111 ft | 438 kts | 118° |
| 2026-05-04 10:36 | 45.22940 | 25.20560 | 37107 ft | 438 kts | 118° |
| 2026-05-04 10:36 | 45.19822 | 25.27981 | 37104 ft | 437 kts | 118° |
| 2026-05-04 10:37 | 45.16726 | 25.35325 | 37099 ft | 437 kts | 118° |
| 2026-05-04 10:37 | 45.13604 | 25.42722 | 37112 ft | 437 kts | 119° |
| 2026-05-04 10:39 | 45.02688 | 25.68389 | 37095 ft | 434 kts | 119° |
| 2026-05-04 10:40 | 44.99562 | 25.75696 | 37102 ft | 434 kts | 120° |
| 2026-05-04 10:40 | 44.96442 | 25.82978 | 37100 ft | 433 kts | 120° |
| 2026-05-04 10:41 | 44.93339 | 25.90204 | 37092 ft | 433 kts | 120° |
| 2026-05-04 10:41 | 44.90192 | 25.97500 | 37093 ft | 432 kts | 120° |
| 2026-05-04 10:42 | 44.87053 | 26.04741 | 37097 ft | 433 kts | 120° |
| 2026-05-04 10:42 | 44.83933 | 26.11935 | 37093 ft | 433 kts | 120° |
| 2026-05-04 10:43 | 44.80791 | 26.19169 | 37092 ft | 433 kts | 120° |
| 2026-05-04 10:45 | 44.68161 | 26.48051 | 37083 ft | 434 kts | 120° |
| 2026-05-04 10:45 | 44.64987 | 26.55262 | 37082 ft | 434 kts | 120° |
| 2026-05-04 10:46 | 44.61829 | 26.62421 | 37092 ft | 434 kts | 121° |
| 2026-05-04 10:46 | 44.58649 | 26.69613 | 37094 ft | 433 kts | 121° |
| 2026-05-04 10:47 | 44.55473 | 26.76799 | 37097 ft | 433 kts | 120° |
| 2026-05-04 10:47 | 44.52291 | 26.83990 | 37092 ft | 433 kts | 121° |
| 2026-05-04 10:49 | 44.39497 | 27.12581 | 37087 ft | 433 kts | 121° |
| 2026-05-04 10:50 | 44.36289 | 27.19719 | 37075 ft | 433 kts | 121° |
| 2026-05-04 10:52 | 44.23499 | 27.47968 | 37092 ft | 430 kts | 121° |
| 2026-05-04 10:52 | 44.20304 | 27.55004 | 37086 ft | 429 kts | 121° |
| 2026-05-04 10:54 | 44.07479 | 27.82976 | 37096 ft | 428 kts | 121° |
| 2026-05-04 10:56 | 43.94603 | 28.10793 | 37089 ft | 427 kts | 121° |
| 2026-05-04 10:57 | 43.91376 | 28.17713 | 37080 ft | 427 kts | 121° |
| 2026-05-04 10:57 | 43.88154 | 28.24623 | 37076 ft | 427 kts | 121° |
| 2026-05-04 10:58 | 43.84937 | 28.31519 | 37083 ft | 426 kts | 121° |
| 2026-05-04 10:58 | 43.81717 | 28.38397 | 37081 ft | 425 kts | 121° |
| 2026-05-04 10:59 | 43.78505 | 28.45221 | 37075 ft | 425 kts | 121° |
| 2026-05-04 10:59 | 43.75276 | 28.52069 | 37067 ft | 425 kts | 121° |
| 2026-05-04 11:00 | 43.72042 | 28.58909 | 37085 ft | 425 kts | 121° |
| 2026-05-04 11:02 | 43.59097 | 28.86171 | 37059 ft | 424 kts | 121° |
| 2026-05-04 11:05 | 43.34662 | 29.36950 | 37017 ft | 425 kts | 121° |
| 2026-05-04 11:06 | 43.31383 | 29.43715 | 37017 ft | 425 kts | 120° |
| 2026-05-04 11:06 | 43.28091 | 29.50466 | 37007 ft | 426 kts | 121° |
| 2026-05-04 11:10 | 43.05489 | 29.96488 | 36994 ft | 426 kts | 121° |
| 2026-05-04 11:12 | 42.92148 | 30.23315 | 36976 ft | 427 kts | 121° |
| 2026-05-04 11:12 | 42.88790 | 30.30007 | 36978 ft | 428 kts | 121° |
| 2026-05-04 11:13 | 42.85455 | 30.36667 | 36964 ft | 428 kts | 121° |
| 2026-05-04 11:13 | 42.82092 | 30.43363 | 36967 ft | 428 kts | 121° |
| 2026-05-04 11:14 | 42.81522 | 30.44493 | 36972 ft | 428 kts | 121° |
| 2026-05-04 11:16 | 42.71855 | 30.79953 | 36934 ft | 420 kts | 96° |
| 2026-05-04 11:16 | 42.71036 | 30.87813 | 36925 ft | 420 kts | 96° |
| 2026-05-04 11:17 | 42.70230 | 30.95648 | 36913 ft | 421 kts | 96° |
| 2026-05-04 11:19 | 42.66921 | 31.27211 | 36896 ft | 423 kts | 96° |
| 2026-05-04 11:19 | 42.66074 | 31.35128 | 36899 ft | 423 kts | 96° |
| 2026-05-04 11:20 | 42.65222 | 31.43039 | 36892 ft | 423 kts | 96° |
| 2026-05-04 11:20 | 42.64366 | 31.50945 | 36911 ft | 424 kts | 96° |
| 2026-05-04 11:22 | 42.60893 | 31.82615 | 36896 ft | 424 kts | 96° |
| 2026-05-04 11:23 | 42.60009 | 31.90521 | 36881 ft | 424 kts | 96° |
| 2026-05-04 11:25 | 42.56899 | 32.18214 | 36849 ft | 425 kts | 96° |
| 2026-05-04 11:25 | 42.55992 | 32.26078 | 36849 ft | 426 kts | 96° |
| 2026-05-04 11:27 | 42.51804 | 32.61954 | 36858 ft | 428 kts | 97° |
| 2026-05-04 11:28 | 42.50851 | 32.69949 | 36855 ft | 429 kts | 97° |
| 2026-05-04 11:28 | 42.49896 | 32.77933 | 36853 ft | 429 kts | 97° |
| 2026-05-04 11:29 | 42.48939 | 32.85873 | 36851 ft | 429 kts | 97° |
| 2026-05-04 11:29 | 42.47977 | 32.93845 | 36848 ft | 429 kts | 97° |
| 2026-05-04 11:33 | 42.41051 | 33.49667 | 36851 ft | 430 kts | 98° |
| 2026-05-04 11:33 | 42.40040 | 33.57643 | 36858 ft | 430 kts | 98° |
| 2026-05-04 11:34 | 42.39024 | 33.65614 | 36867 ft | 430 kts | 98° |
| 2026-05-04 11:34 | 42.37997 | 33.73596 | 36864 ft | 431 kts | 99° |
| 2026-05-04 11:35 | 42.36961 | 33.81577 | 36863 ft | 431 kts | 100° |
| 2026-05-04 11:35 | 42.35909 | 33.89559 | 36868 ft | 431 kts | 100° |
| 2026-05-04 11:36 | 42.34857 | 33.97534 | 36861 ft | 430 kts | 99° |
| 2026-05-04 11:36 | 42.33823 | 34.05440 | 36863 ft | 429 kts | 99° |
| 2026-05-04 11:37 | 42.32790 | 34.13384 | 36847 ft | 429 kts | 100° |
| 2026-05-04 11:37 | 42.31749 | 34.21309 | 36844 ft | 428 kts | 99° |
| 2026-05-04 11:38 | 42.30704 | 34.29242 | 36856 ft | 430 kts | 98° |
| 2026-05-04 11:38 | 42.29649 | 34.37193 | 36869 ft | 430 kts | 99° |
| 2026-05-04 11:39 | 42.28582 | 34.45174 | 36868 ft | 430 kts | 99° |
| 2026-05-04 11:41 | 42.24789 | 34.72897 | 36861 ft | 429 kts | 100° |
| 2026-05-04 11:41 | 42.23693 | 34.80810 | 36854 ft | 429 kts | 100° |
| 2026-05-04 11:42 | 42.22601 | 34.88728 | 36848 ft | 429 kts | 100° |
| 2026-05-04 11:42 | 42.21499 | 34.96644 | 36857 ft | 430 kts | 100° |
| 2026-05-04 11:43 | 42.20381 | 35.04567 | 36846 ft | 430 kts | 100° |
| 2026-05-04 11:43 | 42.19258 | 35.12492 | 36844 ft | 430 kts | 100° |
| 2026-05-04 11:44 | 42.18120 | 35.20480 | 36858 ft | 437 kts | 100° |
| 2026-05-04 11:44 | 42.16974 | 35.28533 | 37084 ft | 437 kts | 100° |
| 2026-05-04 11:44 | 42.16399 | 35.32545 | 37412 ft | 436 kts | 101° |
| 2026-05-04 11:45 | 42.15821 | 35.36563 | 37663 ft | 437 kts | 101° |
| 2026-05-04 11:45 | 42.15241 | 35.40590 | 37881 ft | 438 kts | 101° |
| 2026-05-04 11:45 | 42.14658 | 35.44634 | 38034 ft | 441 kts | 101° |
| 2026-05-04 11:45 | 42.14071 | 35.48704 | 38170 ft | 444 kts | 101° |
| 2026-05-04 11:46 | 42.13479 | 35.52790 | 38375 ft | 445 kts | 102° |
| 2026-05-04 11:46 | 42.12882 | 35.56884 | 38546 ft | 446 kts | 102° |
| 2026-05-04 11:46 | 42.12290 | 35.60941 | 38707 ft | 447 kts | 102° |
| 2026-05-04 11:46 | 42.11691 | 35.65055 | 38821 ft | 448 kts | 102° |
| 2026-05-04 11:47 | 42.11091 | 35.69166 | 38851 ft | 448 kts | 102° |
| 2026-05-04 11:47 | 42.09876 | 35.77407 | 38845 ft | 447 kts | 102° |
| 2026-05-04 11:48 | 42.08659 | 35.85631 | 38846 ft | 449 kts | 102° |
| 2026-05-04 11:48 | 42.07433 | 35.93870 | 38842 ft | 449 kts | 102° |
| 2026-05-04 11:49 | 42.06210 | 36.02101 | 38844 ft | 449 kts | 103° |
| 2026-05-04 11:49 | 42.04972 | 36.10329 | 38846 ft | 448 kts | 103° |
| 2026-05-04 11:50 | 42.03728 | 36.18558 | 38854 ft | 449 kts | 103° |
| 2026-05-04 11:50 | 42.02489 | 36.26732 | 38844 ft | 450 kts | 103° |
| 2026-05-04 11:51 | 42.01233 | 36.34982 | 38850 ft | 450 kts | 103° |
| 2026-05-04 11:51 | 41.99977 | 36.43218 | 38844 ft | 449 kts | 103° |
| 2026-05-04 11:52 | 41.98711 | 36.51454 | 38842 ft | 449 kts | 104° |
| 2026-05-04 11:52 | 41.97438 | 36.59673 | 38844 ft | 450 kts | 104° |
| 2026-05-04 11:53 | 41.96153 | 36.67920 | 38839 ft | 450 kts | 104° |
| 2026-05-04 11:53 | 41.94866 | 36.76155 | 38845 ft | 451 kts | 103° |
| 2026-05-04 11:55 | 41.89486 | 37.07432 | 38848 ft | 445 kts | 115° |
| 2026-05-04 11:56 | 41.87081 | 37.15087 | 38846 ft | 445 kts | 116° |
| 2026-05-04 11:56 | 41.84675 | 37.22731 | 38854 ft | 444 kts | 116° |
| 2026-05-04 11:57 | 41.82271 | 37.30355 | 38854 ft | 443 kts | 116° |
| 2026-05-04 11:57 | 41.79861 | 37.37955 | 38851 ft | 443 kts | 116° |
| 2026-05-04 11:58 | 41.77435 | 37.45552 | 38837 ft | 443 kts | 116° |
| 2026-05-04 11:58 | 41.75015 | 37.53150 | 38837 ft | 443 kts | 116° |
| 2026-05-04 11:59 | 41.72600 | 37.60756 | 38841 ft | 444 kts | 116° |
| 2026-05-04 11:59 | 41.70174 | 37.68342 | 38845 ft | 444 kts | 116° |
| 2026-05-04 12:00 | 41.67758 | 37.75859 | 38837 ft | 444 kts | 116° |
| 2026-05-04 12:00 | 41.65319 | 37.83449 | 38843 ft | 444 kts | 116° |
| 2026-05-04 12:01 | 41.62869 | 37.91038 | 38847 ft | 445 kts | 116° |
| 2026-05-04 12:02 | 41.54253 | 38.17578 | 38859 ft | 444 kts | 117° |
| 2026-05-04 12:03 | 41.51791 | 38.25145 | 38855 ft | 444 kts | 117° |
| 2026-05-04 12:03 | 41.49316 | 38.32693 | 38854 ft | 444 kts | 117° |
| 2026-05-04 12:04 | 41.46831 | 38.40228 | 38862 ft | 444 kts | 117° |
| 2026-05-04 12:04 | 41.44351 | 38.47756 | 38844 ft | 444 kts | 117° |
| 2026-05-04 12:05 | 41.41869 | 38.55289 | 38846 ft | 443 kts | 117° |
| 2026-05-04 12:05 | 41.39389 | 38.62801 | 38854 ft | 442 kts | 117° |
| 2026-05-04 12:06 | 41.36899 | 38.70288 | 38851 ft | 442 kts | 117° |
| 2026-05-04 12:06 | 41.34403 | 38.77758 | 38853 ft | 442 kts | 117° |
| 2026-05-04 12:07 | 41.31941 | 38.85198 | 38840 ft | 442 kts | 117° |
| 2026-05-04 12:07 | 41.29501 | 38.92704 | 38846 ft | 442 kts | 117° |
| 2026-05-04 12:08 | 41.27055 | 39.00199 | 38844 ft | 441 kts | 117° |
| 2026-05-04 12:08 | 41.24595 | 39.07676 | 38852 ft | 441 kts | 117° |
| 2026-05-04 12:09 | 41.22129 | 39.15147 | 38839 ft | 442 kts | 118° |
| 2026-05-04 12:09 | 41.19622 | 39.22595 | 38842 ft | 441 kts | 119° |
| 2026-05-04 12:10 | 41.17027 | 39.29981 | 38851 ft | 442 kts | 119° |
| 2026-05-04 12:10 | 41.14416 | 39.37364 | 38858 ft | 442 kts | 119° |
| 2026-05-04 12:11 | 41.11818 | 39.44756 | 38867 ft | 442 kts | 119° |
| 2026-05-04 12:11 | 41.09237 | 39.52097 | 38875 ft | 442 kts | 119° |
| 2026-05-04 12:12 | 41.06632 | 39.59491 | 38877 ft | 442 kts | 119° |
| 2026-05-04 12:12 | 41.04025 | 39.66873 | 38878 ft | 442 kts | 119° |
| 2026-05-04 12:14 | 40.93693 | 39.96422 | 38863 ft | 442 kts | 118° |
| 2026-05-04 12:15 | 40.91142 | 40.03829 | 38864 ft | 443 kts | 119° |
| 2026-05-04 12:15 | 40.88571 | 40.11217 | 38865 ft | 443 kts | 119° |
| 2026-05-04 12:16 | 40.85991 | 40.18607 | 38865 ft | 443 kts | 119° |
| 2026-05-04 12:16 | 40.83422 | 40.25938 | 38837 ft | 443 kts | 119° |
| 2026-05-04 12:17 | 40.80815 | 40.33373 | 38842 ft | 443 kts | 119° |
| 2026-05-04 12:17 | 40.78237 | 40.40718 | 38846 ft | 445 kts | 119° |
| 2026-05-04 12:18 | 40.75638 | 40.48114 | 38861 ft | 445 kts | 120° |
| 2026-05-04 12:18 | 40.73017 | 40.55529 | 38859 ft | 446 kts | 120° |
| 2026-05-04 12:19 | 40.70387 | 40.62952 | 38869 ft | 446 kts | 120° |
| 2026-05-04 12:19 | 40.67762 | 40.70355 | 38873 ft | 446 kts | 120° |
| 2026-05-04 12:20 | 40.65134 | 40.77757 | 38856 ft | 447 kts | 121° |
| 2026-05-04 12:20 | 40.62487 | 40.85168 | 38856 ft | 448 kts | 120° |
| 2026-05-04 12:21 | 40.59834 | 40.92594 | 38858 ft | 448 kts | 121° |
| 2026-05-04 12:21 | 40.57761 | 41.00371 | 38863 ft | 457 kts | 107° |
| 2026-05-04 12:22 | 40.56439 | 41.08547 | 38856 ft | 460 kts | 107° |
| 2026-05-04 12:22 | 40.55145 | 41.16734 | 38850 ft | 461 kts | 107° |
| 2026-05-04 12:23 | 40.53815 | 41.24969 | 38869 ft | 460 kts | 107° |
| 2026-05-04 12:23 | 40.52465 | 41.33208 | 38881 ft | 461 kts | 107° |
| 2026-05-04 12:24 | 40.51106 | 41.41460 | 38868 ft | 462 kts | 108° |
| 2026-05-04 12:24 | 40.49747 | 41.49702 | 38869 ft | 461 kts | 108° |
| 2026-05-04 12:25 | 40.48374 | 41.57938 | 38883 ft | 462 kts | 108° |
| 2026-05-04 12:25 | 40.46983 | 41.66165 | 38882 ft | 461 kts | 108° |
| 2026-05-04 12:26 | 40.45599 | 41.74397 | 38860 ft | 461 kts | 108° |
| 2026-05-04 12:26 | 40.44218 | 41.82628 | 38864 ft | 462 kts | 108° |
| 2026-05-04 12:27 | 40.42827 | 41.90873 | 38878 ft | 463 kts | 108° |
| 2026-05-04 12:27 | 40.41421 | 41.99139 | 38887 ft | 463 kts | 108° |
| 2026-05-04 12:28 | 40.40012 | 42.07392 | 38570 ft | 464 kts | 108° |
| 2026-05-04 12:28 | 40.39302 | 42.11526 | 38300 ft | 465 kts | 108° |
| 2026-05-04 12:28 | 40.38592 | 42.15654 | 38024 ft | 465 kts | 108° |
| 2026-05-04 12:29 | 40.37876 | 42.19802 | 37268 ft | 468 kts | 109° |
| 2026-05-04 12:29 | 40.37155 | 42.23969 | 36429 ft | 470 kts | 109° |
| 2026-05-04 12:29 | 40.36427 | 42.28167 | 35539 ft | 473 kts | 109° |
| 2026-05-04 12:29 | 40.35691 | 42.32390 | 34578 ft | 479 kts | 110° |
| 2026-05-04 12:30 | 40.34940 | 42.36671 | 33675 ft | 482 kts | 110° |
| 2026-05-04 12:30 | 40.34192 | 42.40949 | 32592 ft | 484 kts | 111° |
| 2026-05-04 12:30 | 40.33443 | 42.45243 | 31844 ft | 480 kts | 111° |
| 2026-05-04 12:30 | 40.32712 | 42.49452 | 30986 ft | 479 kts | 111° |
| 2026-05-04 12:31 | 40.31972 | 42.53724 | 30337 ft | 472 kts | 112° |
| 2026-05-04 12:31 | 40.31257 | 42.57853 | 29585 ft | 467 kts | 112° |
| 2026-05-04 12:31 | 40.30541 | 42.61968 | 28934 ft | 458 kts | 112° |
| 2026-05-04 12:31 | 40.29839 | 42.65988 | 28293 ft | 449 kts | 112° |
| 2026-05-04 12:32 | 40.29141 | 42.69941 | 27630 ft | 442 kts | 112° |
| 2026-05-04 12:32 | 40.27751 | 42.77668 | 26437 ft | 430 kts | 111° |
| 2026-05-04 12:32 | 40.27067 | 42.81457 | 25845 ft | 425 kts | 111° |
| 2026-05-04 12:33 | 40.26393 | 42.85204 | 25274 ft | 420 kts | 111° |
| 2026-05-04 12:33 | 40.25729 | 42.88908 | 24719 ft | 414 kts | 111° |
| 2026-05-04 12:33 | 40.25074 | 42.92556 | 24178 ft | 409 kts | 111° |
| 2026-05-04 12:33 | 40.24429 | 42.96163 | 23662 ft | 405 kts | 110° |
| 2026-05-04 12:34 | 40.23788 | 42.99743 | 23093 ft | 402 kts | 110° |
| 2026-05-04 12:34 | 40.23154 | 43.03274 | 22597 ft | 396 kts | 110° |
| 2026-05-04 12:34 | 40.22525 | 43.06764 | 22097 ft | 392 kts | 110° |
| 2026-05-04 12:34 | 40.21899 | 43.10217 | 21609 ft | 388 kts | 110° |
| 2026-05-04 12:35 | 40.21278 | 43.13641 | 21127 ft | 385 kts | 110° |
| 2026-05-04 12:35 | 40.20664 | 43.17029 | 20616 ft | 382 kts | 110° |
| 2026-05-04 12:35 | 40.20052 | 43.20399 | 20101 ft | 380 kts | 110° |
| 2026-05-04 12:35 | 40.19438 | 43.23752 | 19574 ft | 377 kts | 110° |
| 2026-05-04 12:36 | 40.18828 | 43.27073 | 19062 ft | 374 kts | 110° |
| 2026-05-04 12:36 | 40.18223 | 43.30366 | 18545 ft | 371 kts | 109° |
| 2026-05-04 12:36 | 40.17623 | 43.33633 | 17999 ft | 369 kts | 109° |
| 2026-05-04 12:36 | 40.17032 | 43.36852 | 17417 ft | 366 kts | 109° |
| 2026-05-04 12:37 | 40.16441 | 43.40074 | 16938 ft | 363 kts | 109° |
| 2026-05-04 12:37 | 40.15854 | 43.43263 | 16443 ft | 359 kts | 109° |
| 2026-05-04 12:37 | 40.15271 | 43.46426 | 15954 ft | 357 kts | 109° |
| 2026-05-04 12:37 | 40.14692 | 43.49569 | 15447 ft | 354 kts | 110° |
| 2026-05-04 12:38 | 40.14114 | 43.52690 | 14962 ft | 352 kts | 109° |
| 2026-05-04 12:38 | 40.13540 | 43.55784 | 14486 ft | 350 kts | 109° |
| 2026-05-04 12:38 | 40.12970 | 43.58856 | 14176 ft | 342 kts | 109° |
| 2026-05-04 12:38 | 40.12422 | 43.61822 | 14064 ft | 329 kts | 109° |
| 2026-05-04 12:39 | 40.12104 | 43.64745 | 13926 ft | 323 kts | 96° |
| 2026-05-04 12:39 | 40.12323 | 43.67658 | 13708 ft | 323 kts | 83° |
| 2026-05-04 12:39 | 40.13100 | 43.70465 | 13204 ft | 332 kts | 66° |
| 2026-05-04 12:39 | 40.14170 | 43.73107 | 12983 ft | 323 kts | 66° |
| 2026-05-04 12:40 | 40.15136 | 43.75683 | 12826 ft | 307 kts | 74° |
| 2026-05-04 12:40 | 40.15655 | 43.78312 | 12448 ft | 294 kts | 87° |
| 2026-05-04 12:40 | 40.15705 | 43.80943 | 12002 ft | 287 kts | 99° |
| 2026-05-04 12:40 | 40.15574 | 43.83546 | 11546 ft | 287 kts | 98° |
| 2026-05-04 12:41 | 40.15457 | 43.86106 | 11089 ft | 285 kts | 97° |
| 2026-05-04 12:41 | 40.15345 | 43.88688 | 10513 ft | 284 kts | 97° |
| 2026-05-04 12:41 | 40.15234 | 43.91290 | 10006 ft | 281 kts | 97° |
| 2026-05-04 12:41 | 40.15129 | 43.93784 | 9593 ft | 277 kts | 97° |
| 2026-05-04 12:42 | 40.15021 | 43.96292 | 9224 ft | 274 kts | 96° |
| 2026-05-04 12:42 | 40.14912 | 43.98760 | 8967 ft | 270 kts | 96° |
| 2026-05-04 12:42 | 40.14803 | 44.01202 | 8647 ft | 268 kts | 96° |
| 2026-05-04 12:42 | 40.14695 | 44.03622 | 8282 ft | 267 kts | 96° |
| 2026-05-04 12:43 | 40.14622 | 44.06041 | 7961 ft | 265 kts | 94° |
| 2026-05-04 12:43 | 40.14587 | 44.08430 | 7463 ft | 262 kts | 92° |
| 2026-05-04 12:43 | 40.14570 | 44.10037 | 7099 ft | 262 kts | 92° |
| 2026-05-04 12:43 | 40.14549 | 44.12435 | 6494 ft | 265 kts | 91° |
| 2026-05-04 12:44 | 40.14559 | 44.14825 | 6121 ft | 260 kts | 89° |
| 2026-05-04 12:44 | 40.14579 | 44.17163 | 5758 ft | 253 kts | 89° |
| 2026-05-04 12:44 | 40.14596 | 44.19392 | 5436 ft | 244 kts | 90° |
| 2026-05-04 12:44 | 40.14612 | 44.21578 | 5128 ft | 238 kts | 89° |
| 2026-05-04 12:45 | 40.14627 | 44.23698 | 4836 ft | 230 kts | 89° |
| 2026-05-04 12:45 | 40.14641 | 44.25732 | 4555 ft | 214 kts | 89° |
| 2026-05-04 12:45 | 40.14653 | 44.27614 | 4274 ft | 202 kts | 88° |
| 2026-05-04 12:45 | 40.14665 | 44.29366 | 4018 ft | 185 kts | 88° |
| 2026-05-04 12:46 | 40.14675 | 44.31001 | 3776 ft | 174 kts | 88° |
| 2026-05-04 12:46 | 40.14685 | 44.32532 | 3552 ft | 163 kts | 90° |
| 2026-05-04 12:46 | 40.14698 | 44.33980 | 3378 ft | 156 kts | 92° |
| 2026-05-04 12:46 | 40.14723 | 44.35391 | 3173 ft | 155 kts | 94° |
| 2026-05-04 12:47 | 40.14724 | 44.36999 | 3403 ft | 195 kts | 94° |
| 2026-05-04 12:47 | 40.14675 | 44.38829 | 4286 ft | 205 kts | 92° |
| 2026-05-04 12:47 | 40.14557 | 44.40730 | 4901 ft | 216 kts | 95° |
| 2026-05-04 12:47 | 40.14415 | 44.42711 | 5603 ft | 223 kts | 95° |
| 2026-05-04 12:48 | 40.14249 | 44.44730 | 6433 ft | 225 kts | 104° |
| 2026-05-04 12:48 | 40.13546 | 44.46521 | 6840 ft | 221 kts | 142° |
| 2026-05-04 12:48 | 40.12194 | 44.47253 | 6974 ft | 212 kts | 183° |
| 2026-05-04 12:48 | 40.10815 | 44.46687 | 7008 ft | 207 kts | 218° |
| 2026-05-04 12:49 | 40.09928 | 44.45298 | 7005 ft | 201 kts | 246° |
| 2026-05-04 12:49 | 40.09715 | 44.43491 | 6996 ft | 208 kts | 276° |
| 2026-05-04 12:49 | 40.10271 | 44.41768 | 7008 ft | 210 kts | 302° |
| 2026-05-04 12:49 | 40.11137 | 44.40217 | 7002 ft | 213 kts | 303° |
| 2026-05-04 12:50 | 40.12011 | 44.38650 | 7076 ft | 216 kts | 302° |
| 2026-05-04 12:50 | 40.12891 | 44.37063 | 7918 ft | 216 kts | 301° |
| 2026-05-04 12:50 | 40.13785 | 44.35462 | 8775 ft | 220 kts | 301° |
| 2026-05-04 12:50 | 40.14695 | 44.33820 | 9483 ft | 231 kts | 301° |
| 2026-05-04 12:51 | 40.15685 | 44.32022 | 9975 ft | 255 kts | 301° |
| 2026-05-04 12:51 | 40.16949 | 44.30303 | 10709 ft | 274 kts | 326° |
| 2026-05-04 12:51 | 40.18821 | 44.29653 | 11567 ft | 288 kts | 1° |
| 2026-05-04 12:51 | 40.20734 | 44.30437 | 12458 ft | 295 kts | 34° |
| 2026-05-04 12:52 | 40.22240 | 44.32241 | 12856 ft | 293 kts | 58° |
| 2026-05-04 12:52 | 40.23080 | 44.34617 | 12980 ft | 284 kts | 82° |
| 2026-05-04 12:52 | 40.23167 | 44.37144 | 13003 ft | 274 kts | 105° |
| 2026-05-04 12:52 | 40.22579 | 44.39447 | 13000 ft | 264 kts | 124° |
| 2026-05-04 12:53 | 40.21483 | 44.41322 | 13003 ft | 259 kts | 137° |
| 2026-05-04 12:53 | 40.20276 | 44.43071 | 13004 ft | 259 kts | 136° |
| 2026-05-04 12:53 | 40.19087 | 44.44800 | 13005 ft | 259 kts | 136° |
| 2026-05-04 12:53 | 40.17883 | 44.46555 | 12949 ft | 259 kts | 136° |
| 2026-05-04 12:54 | 40.16545 | 44.48128 | 12829 ft | 252 kts | 155° |
| 2026-05-04 12:54 | 40.14887 | 44.48750 | 12718 ft | 248 kts | 174° |
| 2026-05-04 12:54 | 40.13203 | 44.48984 | 12451 ft | 246 kts | 176° |
| 2026-05-04 12:54 | 40.11491 | 44.49189 | 12023 ft | 251 kts | 176° |
| 2026-05-04 12:55 | 40.09732 | 44.49407 | 11508 ft | 257 kts | 176° |
| 2026-05-04 12:55 | 40.07939 | 44.49634 | 11105 ft | 260 kts | 176° |
| 2026-05-04 12:55 | 40.06150 | 44.49955 | 10808 ft | 260 kts | 167° |
| 2026-05-04 12:55 | 40.04537 | 44.50992 | 10576 ft | 260 kts | 144° |
| 2026-05-04 12:56 | 40.03401 | 44.52814 | 10336 ft | 262 kts | 119° |
| 2026-05-04 12:56 | 40.02984 | 44.55122 | 10106 ft | 266 kts | 94° |
| 2026-05-04 12:56 | 40.03039 | 44.57536 | 9916 ft | 266 kts | 91° |
| 2026-05-04 12:56 | 40.03107 | 44.59954 | 9730 ft | 266 kts | 91° |
| 2026-05-04 12:57 | 40.03182 | 44.62342 | 9521 ft | 264 kts | 91° |
| 2026-05-04 12:57 | 40.03371 | 44.64724 | 9329 ft | 267 kts | 75° |
| 2026-05-04 12:57 | 40.04380 | 44.66772 | 9215 ft | 278 kts | 41° |
| 2026-05-04 12:57 | 40.06109 | 44.67788 | 9022 ft | 272 kts | 5° |
| 2026-05-04 12:58 | 40.07915 | 44.67430 | 8798 ft | 260 kts | 329° |
| 2026-05-04 12:58 | 40.09268 | 44.66017 | 8538 ft | 242 kts | 304° |
| 2026-05-04 12:58 | 40.10373 | 44.64418 | 8354 ft | 230 kts | 305° |
| 2026-05-04 12:58 | 40.11447 | 44.62869 | 7858 ft | 227 kts | 307° |
| 2026-05-04 12:59 | 40.12461 | 44.61410 | 7593 ft | 211 kts | 304° |
| 2026-05-04 12:59 | 40.13443 | 44.59977 | 7047 ft | 210 kts | 308° |
| 2026-05-04 12:59 | 40.14241 | 44.58438 | 6584 ft | 200 kts | 294° |
| 2026-05-04 12:59 | 40.14683 | 44.56780 | 6142 ft | 186 kts | 279° |
| 2026-05-04 13:00 | 40.14805 | 44.55161 | 5687 ft | 177 kts | 269° |
| 2026-05-04 13:00 | 40.14802 | 44.53625 | 5231 ft | 162 kts | 268° |
| 2026-05-04 13:00 | 40.14796 | 44.52162 | 4761 ft | 157 kts | 269° |
| 2026-05-04 13:00 | 40.14791 | 44.50783 | 4439 ft | 147 kts | 267° |
| 2026-05-04 13:01 | 40.14786 | 44.49468 | 4188 ft | 141 kts | 265° |
| 2026-05-04 13:01 | 40.14780 | 44.48204 | 3969 ft | 138 kts | 264° |
| 2026-05-04 13:01 | 40.14773 | 44.46940 | 3771 ft | 142 kts | 265° |
| 2026-05-04 13:01 | 40.14750 | 44.45638 | 3609 ft | 140 kts | 266° |
| 2026-05-04 13:02 | 40.14746 | 44.44420 | 3313 ft | 130 kts | 270° |
| 2026-05-04 13:02 | 40.14757 | 44.43105 | 3483 ft | 159 kts | 265° |
| 2026-05-04 13:02 | 40.14777 | 44.41564 | 4223 ft | 173 kts | 272° |
| 2026-05-04 13:02 | 40.14788 | 44.39976 | 4895 ft | 183 kts | 270° |
| 2026-05-04 13:03 | 40.14775 | 44.38219 | 5385 ft | 198 kts | 270° |
| 2026-05-04 13:03 | 40.14751 | 44.36382 | 6025 ft | 209 kts | 269° |
| 2026-05-04 13:03 | 40.14706 | 44.34459 | 6456 ft | 213 kts | 268° |
| 2026-05-04 13:03 | 40.14667 | 44.32504 | 6560 ft | 217 kts | 268° |
| 2026-05-04 13:04 | 40.14656 | 44.30543 | 6559 ft | 216 kts | 268° |
| 2026-05-04 13:04 | 40.14633 | 44.28590 | 6449 ft | 213 kts | 264° |
| 2026-05-04 13:04 | 40.14066 | 44.26834 | 6323 ft | 213 kts | 230° |
| 2026-05-04 13:04 | 40.12844 | 44.25715 | 6143 ft | 218 kts | 209° |
| 2026-05-04 13:05 | 40.11377 | 44.25266 | 6028 ft | 223 kts | 179° |
| 2026-05-04 13:05 | 40.09877 | 44.25868 | 5867 ft | 229 kts | 156° |
| 2026-05-04 13:05 | 40.08729 | 44.27287 | 5681 ft | 232 kts | 121° |
| 2026-05-04 13:05 | 40.08328 | 44.29310 | 5533 ft | 233 kts | 93° |
| 2026-05-04 13:06 | 40.08291 | 44.31405 | 5418 ft | 232 kts | 89° |
| 2026-05-04 13:06 | 40.08282 | 44.33537 | 5315 ft | 234 kts | 90° |
| 2026-05-04 13:06 | 40.08272 | 44.35660 | 5298 ft | 236 kts | 89° |
| 2026-05-04 13:06 | 40.08256 | 44.37787 | 5301 ft | 234 kts | 89° |
| 2026-05-04 13:07 | 40.08233 | 44.39877 | 5301 ft | 232 kts | 90° |
| 2026-05-04 13:07 | 40.08214 | 44.41991 | 5307 ft | 235 kts | 90° |
| 2026-05-04 13:07 | 40.08199 | 44.44089 | 5312 ft | 225 kts | 88° |
| 2026-05-04 13:07 | 40.08243 | 44.46079 | 5312 ft | 214 kts | 86° |
| 2026-05-04 13:08 | 40.08306 | 44.47997 | 5312 ft | 209 kts | 83° |
| 2026-05-04 13:08 | 40.08640 | 44.49856 | 5307 ft | 209 kts | 72° |
| 2026-05-04 13:08 | 40.09051 | 44.51645 | 5311 ft | 208 kts | 70° |
| 2026-05-04 13:08 | 40.09827 | 44.53207 | 5306 ft | 205 kts | 41° |
| 2026-05-04 13:09 | 40.11060 | 44.54046 | 5305 ft | 197 kts | 13° |
| 2026-05-04 13:09 | 40.12372 | 44.54406 | 5296 ft | 186 kts | 357° |
| 2026-05-04 13:09 | 40.13536 | 44.54028 | 5300 ft | 162 kts | 327° |
| 2026-05-04 13:09 | 40.14348 | 44.53108 | 5151 ft | 155 kts | 304° |
| 2026-05-04 13:10 | 40.14764 | 44.51782 | 4822 ft | 163 kts | 277° |
| 2026-05-04 13:10 | 40.14783 | 44.50297 | 4521 ft | 162 kts | 266° |
| 2026-05-04 13:10 | 40.14776 | 44.48894 | 4221 ft | 149 kts | 265° |
| 2026-05-04 13:10 | 40.14773 | 44.47569 | 3953 ft | 142 kts | 264° |
| 2026-05-04 13:11 | 40.14763 | 44.46287 | 3738 ft | 141 kts | 262° |
| 2026-05-04 13:11 | 40.14754 | 44.44996 | 3536 ft | 140 kts | 263° |
| 2026-05-04 13:11 | 40.14753 | 44.43749 | 3306 ft | 135 kts | 266° |
| 2026-05-04 13:11 | 40.14742 | 44.42455 | 3040 ft | 149 kts | 266° |
| 2026-05-04 13:12 | 40.14741 | 44.41136 | 2849 ft | 135 kts | 268° |
| 2026-05-04 13:12 | 40.14736 | 44.40175 | 2838 ft | 65 kts | 270° |
| 2026-05-04 13:12 | 40.14734 | 44.39755 | 2834 ft | 41 kts | 269° |
| 2026-05-04 13:12 | 40.14732 | 44.39401 | 2830 ft | 37 kts | 270° |
| 2026-05-04 13:13 | 40.14730 | 44.39088 | 2832 ft | 32 kts | 269° |
| 2026-05-04 13:13 | 40.14729 | 44.38807 | 2830 ft | 30 kts | 269° |
| 2026-05-04 13:13 | 40.14727 | 44.38542 | 2831 ft | 29 kts | 270° |
| 2026-05-04 13:13 | 40.14725 | 44.38313 | 2831 ft | 14 kts | 269° |
| 2026-05-04 13:14 | 40.14725 | 44.38211 | 2829 ft | 10 kts | 271° |
| 2026-05-04 13:14 | 40.14726 | 44.38113 | 2830 ft | 12 kts | 270° |
| 2026-05-04 13:14 | 40.14725 | 44.37988 | 2827 ft | 16 kts | 269° |
| 2026-05-04 13:14 | 40.14723 | 44.37817 | 2824 ft | 21 kts | 269° |
| 2026-05-04 13:15 | 40.14722 | 44.37620 | 2824 ft | 22 kts | 270° |
| 2026-05-04 13:15 | 40.14728 | 44.37455 | 2822 ft | 15 kts | 289° |
| 2026-05-04 13:15 | 40.14733 | 44.37380 | 2822 ft | 7 kts | 191° |
| 2026-05-04 13:15 | 40.14721 | 44.37450 | 2822 ft | 11 kts | 88° |
| 2026-05-04 13:16 | 40.14722 | 44.37576 | 2824 ft | 17 kts | 91° |
| 2026-05-04 13:16 | 40.14723 | 44.37756 | 2824 ft | 23 kts | 89° |
| 2026-05-04 13:16 | 40.14725 | 44.37986 | 2827 ft | 27 kts | 89° |
| 2026-05-04 13:16 | 40.14726 | 44.38236 | 2830 ft | 28 kts | 89° |
| 2026-05-04 13:17 | 40.14728 | 44.38495 | 2829 ft | 29 kts | 90° |
| 2026-05-04 13:17 | 40.14730 | 44.38759 | 2830 ft | 30 kts | 89° |
| 2026-05-04 13:17 | 40.14732 | 44.39047 | 2830 ft | 33 kts | 90° |
| 2026-05-04 13:17 | 40.14734 | 44.39363 | 2830 ft | 36 kts | 89° |
| 2026-05-04 13:18 | 40.14735 | 44.39701 | 2833 ft | 38 kts | 89° |
| 2026-05-04 13:18 | 40.14736 | 44.39966 | 2836 ft | 18 kts | 82° |
| 2026-05-04 13:18 | 40.14817 | 44.40033 | 2836 ft | 14 kts | 359° |
| 2026-05-04 13:18 | 40.14919 | 44.40032 | 2838 ft | 15 kts | 359° |
| 2026-05-04 13:19 | 40.15007 | 44.40007 | 2836 ft | 11 kts | 349° |
| 2026-05-04 13:19 | 40.15059 | 44.40005 | 2837 ft | 10 kts | 359° |
| 2026-05-04 13:19 | 40.15094 | 44.40005 | 2838 ft | 1 kts | 359° |
| 2026-05-04 13:19 | 40.15096 | 44.40005 | 2838 ft | 0 kts | 359° |